Date,TemperatureHighF,TemperatureAvgF,TemperatureLowF,DewpointHighF,DewpointAvgF,DewpointLowF,HumidityHigh,HumidityAvg,HumidityLow,PressureMaxIn,PressureMinIn,WindSpeedMaxMPH,WindSpeedAvgMPH,GustSpeedMaxMPH,PrecipitationSumIn
2013-7-1,80.3,75.8,73.2,76.4,74.1,72.0,96,94,87,30.05,29.84,5,2,10,0.52
2013-7-2,83.4,76.4,72.2,78.2,74.2,71.0,96,93,81,30.18,30.03,3,1,10,0.47
2013-7-3,85.3,79.2,73.5,79.2,75.3,72.3,97,88,75,30.25,30.16,6,2,11,0.21
2013-7-4,86.9,78.7,70.0,76.8,73.5,68.8,97,85,68,30.26,30.20,5,2,9,0.01
2013-7-5,86.5,77.5,69.8,78.6,73.4,68.6,97,88,72,30.27,30.17,4,1,6,0.38
2013-7-6,87.6,76.7,67.8,77.9,72.0,66.6,98,86,65,30.24,30.14,5,1,10,0.02
2013-7-7,89.0,78.0,66.6,76.5,71.5,65.4,97,82,62,30.19,30.08,4,1,10,0.00
2013-7-8,89.5,78.2,68.8,78.1,72.6,67.5,97,84,64,30.17,30.09,2,1,3,0.00
2013-7-9,88.9,79.1,72.1,77.4,74.0,70.6,96,85,67,30.17,30.08,3,1,7,0.17
2013-7-10,89.6,80.4,71.9,77.3,73.7,70.2,96,82,53,30.12,29.99,4,1,7,0.00
2013-7-14,87.7,82.0,73.2,77.2,75.0,71.7,95,80,66,30.25,30.20,5,2,9,0.11
2013-7-15,90.2,79.0,71.6,78.7,73.6,70.1,97,85,60,30.26,30.21,3,1,4,0.00
2013-7-16,93.0,80.1,67.8,79.4,73.2,66.6,97,81,55,30.25,30.15,2,0,3,0.00
2013-7-17,91.0,80.0,73.0,81.1,75.7,71.7,96,87,69,30.19,30.09,2,0,4,0.27
2013-7-18,92.1,80.5,70.5,77.7,73.7,69.3,97,82,56,30.12,30.04,3,0,7,0.00
2013-7-19,90.6,80.3,72.1,79.8,74.8,70.9,97,84,67,30.11,30.00,4,1,6,0.00
2013-7-20,88.6,79.7,73.2,77.5,74.2,71.7,96,84,68,30.05,29.95,5,2,7,0.00
2013-7-21,86.4,77.9,72.3,77.9,73.9,70.1,94,88,75,30.01,29.91,4,1,5,0.00
2013-7-22,89.5,80.2,72.8,79.7,75.5,71.6,97,86,68,29.95,29.84,3,1,9,0.00
2013-7-23,88.6,79.8,74.1,77.8,75.1,72.3,95,86,66,29.88,29.73,3,1,6,0.00
2013-7-24,90.9,80.6,72.1,79.9,75.4,70.9,97,85,66,29.79,29.72,4,1,4,0.00
2013-7-25,86.3,77.3,70.5,76.6,72.6,69.3,96,86,71,29.97,29.75,2,1,6,0.00
2013-7-26,87.8,76.0,66.3,75.1,70.2,65.1,97,84,59,30.07,29.98,2,0,4,0.00
2013-7-27,88.0,76.2,64.9,76.1,71.0,63.7,98,85,66,30.03,29.93,4,1,6,0.00
2013-7-28,88.6,78.0,69.3,78.5,73.7,68.1,97,87,67,30.00,29.88,3,0,4,0.00
2013-7-29,88.2,76.7,71.9,80.5,74.0,70.7,97,92,75,30.10,29.99,2,0,6,0.00
2013-7-30,88.7,76.5,67.7,78.2,72.5,66.8,98,88,65,30.17,30.09,1,0,2,0.00
2013-7-31,85.5,76.8,69.3,76.7,72.4,68.1,97,87,67,30.12,30.01,3,1,4,0.00